Flight Track Log - Related Links

Times and Time Zones

All times are in EDT time to prevent confusion due to time zone crossing. See the EJA922 flight status page for this flight to view local times or setup timezone preferences in your user account.

Time Position Orientation Groundspeed Altitude Reporting Facility
EDT Latitude Longitude Course Direction KTS MPH feet Rate Location/Type
Mon 03:32:35 PM 41.2828 -95.8989 185° South 181 208 1,600  Level Minneapolis Center
Mon 03:33:05 PM 41.2581 -95.9017 185° South 192 221 2,700 3,102 Climbing Minneapolis Center
Mon 03:34:33 PM 41.2136 -96.0111 242° Southwest 252 290 7,700 3,080 Climbing Minneapolis Center
Mon 03:35:35 PM 41.1969 -96.1064 257° West 260 299 10,400 1,742 Climbing Minneapolis Center
Mon 03:36:37 PM 41.1722 -96.2261 255° West 322 371 11,300 1,355 Climbing Minneapolis Center
Mon 03:37:39 PM 41.1783 -96.3561 274° West 353 406 13,200 1,790 Climbing Minneapolis Center
Mon 03:38:41 PM 41.1919 -96.4906 278° West 363 418 15,000 1,645 Climbing Minneapolis Center
Mon 03:39:43 PM 41.2067 -96.6264 278° West 368 423 16,600 1,403 Climbing Minneapolis Center
Mon 03:40:45 PM 41.2219 -96.7664 278° West 378 435 17,900 1,403 Climbing Minneapolis Center
Mon 03:41:47 PM 41.2389 -96.9389 277° West 390 449 19,500 1,258 Climbing Minneapolis Center
Mon 03:42:49 PM 41.2536 -97.0853 278° West 397 457 20,500 1,161 Climbing Minneapolis Center
Mon 03:43:51 PM 41.2692 -97.2319 278° West 400 460 21,900 1,016 Climbing Minneapolis Center
Mon 03:44:53 PM 41.2831 -97.3781 277° West 400 460 22,600 780 Climbing Minneapolis Center
Mon 03:45:54 PM 41.2983 -97.5350 277° West 408 470 23,500 780 Climbing Minneapolis Center
Mon 03:46:56 PM 41.3133 -97.6889 277° West 416 479 24,200 677 Climbing Minneapolis Center
Mon 03:47:58 PM 41.3278 -97.8381 277° West 423 487 24,900 774 Climbing Minneapolis Center
Mon 03:49:00 PM 41.3456 -98.0292 277° West 431 496 25,800 726 Climbing Minneapolis Center
Mon 03:50:02 PM 41.3617 -98.1953 277° West 437 503 26,400 726 Climbing Minneapolis Center
Mon 03:51:04 PM 41.3775 -98.3575 277° West 443 510 27,300 823 Climbing Minneapolis Center
Mon 03:52:06 PM 41.3953 -98.5153 279° West 444 511 28,100 774 Climbing Minneapolis Center
Mon 03:53:08 PM 41.4144 -98.6772 279° West 443 510 28,900 774 Climbing Minneapolis Center
Mon 03:54:10 PM 41.4347 -98.8375 280° West 442 509 29,700 629 Climbing Minneapolis Center
Mon 03:55:12 PM 41.4542 -99.0022 279° West 445 512 30,200 629 Climbing Minneapolis Center
Mon 03:56:14 PM 41.4803 -99.1992 280° West 451 519 31,000 732 Climbing Minneapolis Center
Mon 03:57:15 PM 41.4989 -99.3669 278° West 458 527 31,700 683 Climbing Minneapolis Center
Mon 03:58:17 PM 41.5189 -99.5350 279° West 460 529 32,400 677 Climbing Minneapolis Center
Mon 03:59:19 PM 41.5372 -99.7044 278° West 462 532 33,100 677 Climbing Minneapolis Center
Mon 04:00:21 PM 41.5561 -99.8750 278° West 465 535 33,800 919 Climbing Minneapolis Center
Mon 04:01:23 PM 41.5792 -100.0797 279° West 466 536 35,000 1,258 Climbing Minneapolis Center
Mon 04:02:25 PM 41.5969 -100.2464 278° West 458 527 36,400 1,355 Climbing Minneapolis Center
Mon 04:03:27 PM 41.6133 -100.4083 278° West 449 517 37,800 1,272 Climbing Minneapolis Center
Mon 04:04:56 PM 41.6367 -100.6403 278° West 435 501 39,600 874 Climbing Denver Center
Mon 04:05:58 PM 41.6553 -100.8208 278° West 441 507 40,000 194 Climbing Denver Center
Mon 04:07:00 PM 41.6725 -100.9844 278° West 462 532 40,000  Level Denver Center
Mon 04:08:02 PM 41.6917 -101.1797 278° West 477 549 40,000  Level Denver Center
Mon 04:09:04 PM 41.7078 -101.3500 277° West 482 555 40,000  Level Denver Center
Mon 04:10:06 PM 41.7264 -101.5483 277° West 483 556 40,000  Level Denver Center
Mon 04:11:07 PM 41.7433 -101.7169 278° West 480 552 40,000  Level Denver Center
Mon 04:12:09 PM 41.7586 -101.8883 277° West 485 558 40,000  Level Denver Center
Mon 04:13:11 PM 41.7764 -102.0869 277° West 482 555 40,000  Level Denver Center
Mon 04:14:13 PM 41.7944 -102.2767 277° West 487 560 40,000  Level Denver Center
Mon 04:15:15 PM 41.8208 -102.4461 282° West 486 559 40,000  Level Denver Center
Mon 04:16:17 PM 41.8517 -102.6444 282° West 487 560 40,000  Level Denver Center
Mon 04:17:19 PM 41.8756 -102.8142 281° West 484 557 40,000  Level Denver Center
Mon 04:18:21 PM 41.9044 -103.0128 281° West 486 559 40,000  Level Denver Center
Mon 04:19:23 PM 41.9294 -103.1825 281° West 485 558 40,000  Level Denver Center
Mon 04:20:25 PM 41.9564 -103.3808 280° West 483 556 40,000  Level Denver Center
Mon 04:21:27 PM 41.9811 -103.5497 281° West 482 555 40,000  Level Denver Center
Mon 04:22:29 PM 42.0042 -103.7181 280° West 480 552 40,000  Level Denver Center
Mon 04:23:30 PM 42.0306 -103.9153 280° West 479 551 40,000  Level Denver Center
Mon 04:24:32 PM 42.0528 -104.0839 280° West 477 549 40,000  Level Denver Center
Mon 04:25:34 PM 42.0789 -104.2803 280° West 475 547 40,000  Level Denver Center
Mon 04:26:36 PM 42.1006 -104.4492 280° West 475 547 40,000  Level Denver Center
Mon 04:27:38 PM 42.1269 -104.6461 280° West 475 547 40,000  Level Denver Center
Mon 04:28:40 PM 42.1486 -104.8161 280° West 477 549 40,000  Level Denver Center
Mon 04:29:42 PM 42.1703 -104.9844 280° West 475 547 40,000  Level Denver Center
Mon 04:30:44 PM 42.1947 -105.1789 280° West 471 542 40,000  Level Denver Center
Mon 04:31:46 PM 42.2153 -105.3450 280° West 468 539 40,000  Level Denver Center
Mon 04:32:48 PM 42.2386 -105.5386 279° West 466 536 40,000  Level Denver Center
Mon 04:33:49 PM 42.2578 -105.7019 279° West 461 531 40,000  Level Denver Center
Mon 04:34:51 PM 42.2808 -105.8969 279° West 468 539 40,000  Level Denver Center
Mon 04:35:53 PM 42.3008 -106.0606 279° West 464 534 40,000  Level Denver Center
Mon 04:36:55 PM 42.3186 -106.2214 279° West 455 524 40,000  Level Denver Center
Mon 04:37:57 PM 42.3414 -106.4122 279° West 457 526 40,000  Level Denver Center
Mon 04:38:59 PM 42.3592 -106.5728 279° West 454 522 40,000  Level Denver Center
Mon 04:40:01 PM 42.3789 -106.7594 278° West 449 517 40,000  Level Denver Center
Mon 04:41:02 PM 42.3997 -106.9392 279° West 455 524 40,000  Level Denver Center
Mon 04:42:04 PM 42.4169 -107.1006 278° West 454 522 40,000  Level Denver Center
Mon 04:43:06 PM 42.4336 -107.2617 278° West 454 522 40,000  Level Denver Center
Mon 04:44:08 PM 42.4544 -107.4506 279° West 455 524 40,000  Level Denver Center
Mon 04:45:10 PM 42.4711 -107.6117 278° West 454 522 40,000  Level Denver Center
Mon 04:46:12 PM 42.4892 -107.8000 277° West 454 522 40,000  Level Denver Center
Mon 04:47:37 PM 42.5131 -108.0450 278° West 456 525 40,000  Level Salt Lake Center
Mon 04:48:39 PM 42.5289 -108.2061 278° West 453 521 40,000  Level Salt Lake Center
Mon 04:49:41 PM 42.5469 -108.3986 277° West 460 529 40,000  Level Salt Lake Center
Mon 04:50:43 PM 42.5628 -108.5606 278° West 457 526 40,000  Level Salt Lake Center
Mon 04:51:44 PM 42.5808 -108.7506 277° West 457 526 40,000  Level Salt Lake Center
Mon 04:52:46 PM 42.5953 -108.9122 277° West 455 524 40,000  Level Salt Lake Center
Mon 04:53:48 PM 42.6114 -109.1000 277° West 451 519 40,000  Level Salt Lake Center
Mon 04:54:49 PM 42.6256 -109.2617 277° West 452 520 40,000  Level Salt Lake Center
Mon 04:55:51 PM 42.6400 -109.4236 277° West 453 521 40,000  Level Salt Lake Center
Mon 04:56:53 PM 42.6556 -109.6144 276° West 456 525 40,000  Level Salt Lake Center
Mon 04:57:55 PM 42.6689 -109.7744 277° West 450 518 40,000  Level Salt Lake Center
Mon 04:58:56 PM 42.6847 -109.9658 276° West 455 524 40,000  Level Salt Lake Center
Mon 04:59:58 PM 42.6983 -110.1281 277° West 453 521 40,000  Level Salt Lake Center
Mon 05:01:00 PM 42.7122 -110.3069 276° West 455 524 40,000  Level Salt Lake Center
Mon 05:02:02 PM 42.7269 -110.4983 276° West 455 524 40,000  Level Salt Lake Center
Mon 05:03:04 PM 42.7394 -110.6619 276° West 454 522 40,000  Level Salt Lake Center
Mon 05:04:05 PM 42.7519 -110.8272 276° West 458 527 40,000 -195 Level Salt Lake Center
Mon 05:05:07 PM 42.7647 -111.0197 275° West 457 526 39,600 -677 Descending Salt Lake Center
Mon 05:06:09 PM 42.7772 -111.1831 276° West 454 522 38,600 -1,161 Descending Salt Lake Center
Mon 05:07:11 PM 42.7906 -111.3708 276° West 449 517 37,200 -1,317 Descending Salt Lake Center
Mon 05:08:12 PM 42.8008 -111.5328 275° West 448 516 35,900 -1,366 Descending Salt Lake Center
Mon 05:09:14 PM 42.8136 -111.7278 275° West 461 531 34,400 -1,403 Descending Salt Lake Center
Mon 05:10:16 PM 42.8247 -111.8975 275° West 467 537 33,000 -1,452 Descending Salt Lake Center
Mon 05:11:18 PM 42.8364 -112.0656 275° West 465 535 31,400 -1,645 Descending Salt Lake Center
Mon 05:12:20 PM 42.8486 -112.2700 275° West 482 555 29,600 -1,561 Descending Salt Lake Center
Mon 05:13:21 PM 42.8575 -112.4475 274° West 489 563 28,200 -1,512 Descending Salt Lake Center
Mon 05:14:23 PM 42.8722 -112.6467 276° West 475 547 26,500 -1,742 Descending Salt Lake Center
Mon 05:15:25 PM 42.9042 -112.8142 285° West 476 548 24,600 -2,081 Descending Salt Lake Center
Mon 05:16:27 PM 42.9431 -113.0019 286° West 465 535 22,200 -2,129 Descending Salt Lake Center
Mon 05:17:29 PM 42.9756 -113.1597 286° West 456 525 20,200 -1,951 Descending Salt Lake Center
Mon 05:18:30 PM 43.0069 -113.3097 286° West 440 506 18,200 -1,854 Descending Salt Lake Center
Mon 05:19:32 PM 43.0406 -113.4794 285° West 423 487 16,400 -1,113 Descending Salt Lake Center
Mon 05:20:34 PM 43.0694 -113.6200 286° West 409 471 15,900 -871 Descending Salt Lake Center
Mon 05:21:36 PM 43.1019 -113.7825 285° West 400 460 14,600 -1,452 Descending Salt Lake Center
Mon 05:22:38 PM 43.1339 -113.9247 287° West 392 451 12,900 -1,597 Descending Salt Lake Center
Mon 05:23:40 PM 43.1997 -114.0347 309° West 358 412 11,300 -927 Descending Salt Lake Center
Mon 05:24:41 PM 43.2547 -114.1300 308° West 317 365 11,000 -195 Descending Salt Lake Center
Mon 05:25:43 PM 43.3111 -114.1989 318° Northwest 272 313 10,900 -97 Descending Salt Lake Center
Mon 05:27:00 PM 43.4417 -114.2739 345° North  Level FlightAware Approximate
Mon 05:34:00 PM 43.5000 -114.2833 North  Level FlightAware Approximate
Mon 05:35:00 PM 43.5038 -114.2956 North  Level Estimated
Mon 05:36:00 PM 43.5038 -114.2956 North  Level Estimated

Login

Don't have an account? Register now (free) for customized features, flight alerts, and more!